sensor_id;sensor_type;location;lat;lon;timestamp;P1;durP1;ratioP1;P2;durP2;ratioP2
7195;SDS011;3639;51.308;5.624;2022-09-13T00:00:47;5.93;;;3.97;;
7195;SDS011;3639;51.308;5.624;2022-09-13T00:03:14;5.77;;;4.10;;
7195;SDS011;3639;51.308;5.624;2022-09-13T00:05:39;5.23;;;3.80;;
7195;SDS011;3639;51.308;5.624;2022-09-13T00:08:05;4.90;;;3.77;;
7195;SDS011;3639;51.308;5.624;2022-09-13T00:10:35;5.33;;;3.20;;
7195;SDS011;3639;51.308;5.624;2022-09-13T00:13:03;7.10;;;3.80;;
7195;SDS011;3639;51.308;5.624;2022-09-13T00:15:30;4.77;;;3.93;;
7195;SDS011;3639;51.308;5.624;2022-09-13T00:17:56;4.50;;;3.20;;
7195;SDS011;3639;51.308;5.624;2022-09-13T00:20:21;4.53;;;3.50;;
7195;SDS011;3639;51.308;5.624;2022-09-13T00:22:47;4.37;;;3.33;;
7195;SDS011;3639;51.308;5.624;2022-09-13T00:25:13;4.27;;;3.40;;
7195;SDS011;3639;51.308;5.624;2022-09-13T00:27:39;6.83;;;3.50;;
7195;SDS011;3639;51.308;5.624;2022-09-13T00:30:05;6.00;;;3.73;;
7195;SDS011;3639;51.308;5.624;2022-09-13T00:32:32;7.53;;;3.60;;
7195;SDS011;3639;51.308;5.624;2022-09-13T00:34:59;6.27;;;3.63;;
7195;SDS011;3639;51.308;5.624;2022-09-13T00:37:25;5.73;;;3.40;;
7195;SDS011;3639;51.308;5.624;2022-09-13T00:39:51;5.13;;;3.47;;
7195;SDS011;3639;51.308;5.624;2022-09-13T00:42:17;6.37;;;3.87;;
7195;SDS011;3639;51.308;5.624;2022-09-13T00:44:58;4.33;;;3.63;;
7195;SDS011;3639;51.308;5.624;2022-09-13T00:50:24;4.17;;;3.23;;
7195;SDS011;3639;51.308;5.624;2022-09-13T00:53:02;7.30;;;3.57;;
7195;SDS011;3639;51.308;5.624;2022-09-13T00:58:26;4.97;;;3.20;;
7195;SDS011;3639;51.308;5.624;2022-09-13T01:00:56;5.13;;;3.53;;
7195;SDS011;3639;51.308;5.624;2022-09-13T01:03:24;4.60;;;3.17;;
7195;SDS011;3639;51.308;5.624;2022-09-13T01:05:56;4.93;;;3.60;;
7195;SDS011;3639;51.308;5.624;2022-09-13T01:08:29;6.10;;;3.63;;
7195;SDS011;3639;51.308;5.624;2022-09-13T01:10:57;5.57;;;3.90;;
7195;SDS011;3639;51.308;5.624;2022-09-13T01:13:25;4.53;;;3.77;;
7195;SDS011;3639;51.308;5.624;2022-09-13T01:15:56;5.03;;;3.27;;
7195;SDS011;3639;51.308;5.624;2022-09-13T01:18:22;4.73;;;3.60;;
7195;SDS011;3639;51.308;5.624;2022-09-13T01:23:33;5.40;;;3.47;;
7195;SDS011;3639;51.308;5.624;2022-09-13T01:34:08;7.70;;;3.30;;
7195;SDS011;3639;51.308;5.624;2022-09-13T01:36:58;4.00;;;3.27;;
7195;SDS011;3639;51.308;5.624;2022-09-13T01:42:23;3.40;;;3.00;;
7195;SDS011;3639;51.308;5.624;2022-09-13T01:45:10;4.17;;;3.23;;
7195;SDS011;3639;51.308;5.624;2022-09-13T01:47:51;4.67;;;3.37;;
7195;SDS011;3639;51.308;5.624;2022-09-13T01:55:54;4.03;;;2.97;;
7195;SDS011;3639;51.308;5.624;2022-09-13T01:58:26;3.97;;;3.30;;
7195;SDS011;3639;51.308;5.624;2022-09-13T02:01:03;4.43;;;3.23;;
7195;SDS011;3639;51.308;5.624;2022-09-13T02:03:44;6.93;;;3.73;;
7195;SDS011;3639;51.308;5.624;2022-09-13T02:06:21;4.40;;;3.33;;
7195;SDS011;3639;51.308;5.624;2022-09-13T02:09:11;5.57;;;3.33;;
7195;SDS011;3639;51.308;5.624;2022-09-13T02:11:45;5.00;;;3.40;;
7195;SDS011;3639;51.308;5.624;2022-09-13T02:14:15;5.33;;;3.83;;
7195;SDS011;3639;51.308;5.624;2022-09-13T02:16:47;5.67;;;4.00;;
7195;SDS011;3639;51.308;5.624;2022-09-13T02:19:26;5.70;;;3.77;;
7195;SDS011;3639;51.308;5.624;2022-09-13T02:21:59;7.93;;;3.63;;
7195;SDS011;3639;51.308;5.624;2022-09-13T02:24:34;5.20;;;2.93;;
7195;SDS011;3639;51.308;5.624;2022-09-13T02:27:14;7.37;;;3.37;;
7195;SDS011;3639;51.308;5.624;2022-09-13T02:29:44;3.90;;;3.50;;
7195;SDS011;3639;51.308;5.624;2022-09-13T02:34:44;6.30;;;3.57;;
7195;SDS011;3639;51.308;5.624;2022-09-13T02:37:12;4.90;;;3.33;;
7195;SDS011;3639;51.308;5.624;2022-09-13T02:39:40;6.27;;;3.23;;
7195;SDS011;3639;51.308;5.624;2022-09-13T02:42:16;6.17;;;3.70;;
7195;SDS011;3639;51.308;5.624;2022-09-13T02:44:45;4.93;;;3.80;;
7195;SDS011;3639;51.308;5.624;2022-09-13T03:00:38;8.13;;;4.47;;
7195;SDS011;3639;51.308;5.624;2022-09-13T03:03:05;6.33;;;3.90;;
7195;SDS011;3639;51.308;5.624;2022-09-13T03:05:34;5.70;;;4.10;;
7195;SDS011;3639;51.308;5.624;2022-09-13T03:07:59;4.93;;;3.10;;
7195;SDS011;3639;51.308;5.624;2022-09-13T03:10:26;4.23;;;3.47;;
7195;SDS011;3639;51.308;5.624;2022-09-13T03:16:09;4.63;;;3.60;;
7195;SDS011;3639;51.308;5.624;2022-09-13T03:24:06;4.73;;;3.43;;
7195;SDS011;3639;51.308;5.624;2022-09-13T03:34:33;4.43;;;3.60;;
7195;SDS011;3639;51.308;5.624;2022-09-13T03:37:07;8.57;;;4.00;;
7195;SDS011;3639;51.308;5.624;2022-09-13T03:39:56;5.03;;;3.47;;
7195;SDS011;3639;51.308;5.624;2022-09-13T03:42:45;4.40;;;3.37;;
7195;SDS011;3639;51.308;5.624;2022-09-13T03:45:26;4.97;;;3.27;;
7195;SDS011;3639;51.308;5.624;2022-09-13T03:47:56;5.37;;;3.50;;
7195;SDS011;3639;51.308;5.624;2022-09-13T03:50:22;5.17;;;3.90;;
7195;SDS011;3639;51.308;5.624;2022-09-13T03:52:55;5.60;;;4.00;;
7195;SDS011;3639;51.308;5.624;2022-09-13T03:55:25;4.40;;;3.43;;
7195;SDS011;3639;51.308;5.624;2022-09-13T03:57:51;5.13;;;3.83;;
7195;SDS011;3639;51.308;5.624;2022-09-13T04:00:16;4.83;;;3.27;;
7195;SDS011;3639;51.308;5.624;2022-09-13T04:02:42;9.47;;;3.30;;
7195;SDS011;3639;51.308;5.624;2022-09-13T04:05:08;5.03;;;3.43;;
7195;SDS011;3639;51.308;5.624;2022-09-13T04:07:34;4.93;;;3.30;;
7195;SDS011;3639;51.308;5.624;2022-09-13T04:10:00;5.63;;;3.47;;
7195;SDS011;3639;51.308;5.624;2022-09-13T04:12:26;6.53;;;3.50;;
7195;SDS011;3639;51.308;5.624;2022-09-13T04:14:54;4.90;;;3.63;;
7195;SDS011;3639;51.308;5.624;2022-09-13T04:17:20;6.07;;;3.67;;
7195;SDS011;3639;51.308;5.624;2022-09-13T04:19:46;4.47;;;3.67;;
7195;SDS011;3639;51.308;5.624;2022-09-13T04:22:12;5.53;;;3.53;;
7195;SDS011;3639;51.308;5.624;2022-09-13T04:24:38;6.33;;;3.83;;
7195;SDS011;3639;51.308;5.624;2022-09-13T04:27:04;4.07;;;3.40;;
7195;SDS011;3639;51.308;5.624;2022-09-13T04:29:31;4.10;;;3.53;;
7195;SDS011;3639;51.308;5.624;2022-09-13T04:31:57;4.33;;;3.20;;
7195;SDS011;3639;51.308;5.624;2022-09-13T04:34:23;6.33;;;3.67;;
7195;SDS011;3639;51.308;5.624;2022-09-13T04:36:49;4.33;;;3.40;;
7195;SDS011;3639;51.308;5.624;2022-09-13T04:39:16;8.67;;;3.37;;
7195;SDS011;3639;51.308;5.624;2022-09-13T04:41:44;4.50;;;3.20;;
7195;SDS011;3639;51.308;5.624;2022-09-13T04:44:12;4.70;;;2.73;;
7195;SDS011;3639;51.308;5.624;2022-09-13T04:46:39;4.10;;;3.00;;
7195;SDS011;3639;51.308;5.624;2022-09-13T04:49:05;5.17;;;3.20;;
7195;SDS011;3639;51.308;5.624;2022-09-13T04:51:31;4.83;;;3.30;;
7195;SDS011;3639;51.308;5.624;2022-09-13T04:53:57;4.53;;;3.00;;
7195;SDS011;3639;51.308;5.624;2022-09-13T04:56:24;4.87;;;3.27;;
7195;SDS011;3639;51.308;5.624;2022-09-13T04:58:50;5.40;;;3.53;;
7195;SDS011;3639;51.308;5.624;2022-09-13T05:01:16;7.10;;;3.47;;
7195;SDS011;3639;51.308;5.624;2022-09-13T05:03:42;4.57;;;3.40;;
7195;SDS011;3639;51.308;5.624;2022-09-13T05:06:12;5.00;;;3.17;;
7195;SDS011;3639;51.308;5.624;2022-09-13T05:08:42;5.47;;;3.80;;
7195;SDS011;3639;51.308;5.624;2022-09-13T05:11:08;5.53;;;3.17;;
7195;SDS011;3639;51.308;5.624;2022-09-13T05:13:34;7.83;;;3.60;;
7195;SDS011;3639;51.308;5.624;2022-09-13T05:16:04;4.33;;;3.00;;
7195;SDS011;3639;51.308;5.624;2022-09-13T05:18:32;4.60;;;3.77;;
7195;SDS011;3639;51.308;5.624;2022-09-13T05:21:00;4.50;;;3.20;;
7195;SDS011;3639;51.308;5.624;2022-09-13T05:23:28;5.93;;;3.40;;
7195;SDS011;3639;51.308;5.624;2022-09-13T05:25:55;3.30;;;2.70;;
7195;SDS011;3639;51.308;5.624;2022-09-13T05:28:22;4.30;;;3.43;;
7195;SDS011;3639;51.308;5.624;2022-09-13T05:30:58;3.50;;;2.80;;
7195;SDS011;3639;51.308;5.624;2022-09-13T05:33:29;4.37;;;3.57;;
7195;SDS011;3639;51.308;5.624;2022-09-13T05:35:56;4.87;;;3.03;;
7195;SDS011;3639;51.308;5.624;2022-09-13T05:38:22;5.07;;;3.30;;
7195;SDS011;3639;51.308;5.624;2022-09-13T05:40:52;3.50;;;3.03;;
7195;SDS011;3639;51.308;5.624;2022-09-13T05:43:26;5.00;;;3.53;;
7195;SDS011;3639;51.308;5.624;2022-09-13T05:46:03;5.60;;;3.63;;
7195;SDS011;3639;51.308;5.624;2022-09-13T05:48:37;5.83;;;3.27;;
7195;SDS011;3639;51.308;5.624;2022-09-13T05:51:04;5.33;;;3.03;;
7195;SDS011;3639;51.308;5.624;2022-09-13T05:53:34;5.27;;;3.23;;
7195;SDS011;3639;51.308;5.624;2022-09-13T05:56:02;3.97;;;3.00;;
7195;SDS011;3639;51.308;5.624;2022-09-13T05:58:28;3.40;;;2.90;;
7195;SDS011;3639;51.308;5.624;2022-09-13T06:00:56;4.03;;;2.80;;
7195;SDS011;3639;51.308;5.624;2022-09-13T06:03:22;4.30;;;3.57;;
7195;SDS011;3639;51.308;5.624;2022-09-13T06:05:48;4.20;;;3.20;;
7195;SDS011;3639;51.308;5.624;2022-09-13T06:08:18;4.40;;;3.10;;
7195;SDS011;3639;51.308;5.624;2022-09-13T06:10:51;5.20;;;3.30;;
7195;SDS011;3639;51.308;5.624;2022-09-13T06:13:34;5.70;;;3.77;;
7195;SDS011;3639;51.308;5.624;2022-09-13T06:16:01;4.60;;;3.47;;
7195;SDS011;3639;51.308;5.624;2022-09-13T06:18:28;5.20;;;3.30;;
7195;SDS011;3639;51.308;5.624;2022-09-13T06:20:58;12.73;;;3.50;;
7195;SDS011;3639;51.308;5.624;2022-09-13T06:23:25;5.17;;;3.27;;
7195;SDS011;3639;51.308;5.624;2022-09-13T06:25:59;4.73;;;2.97;;
7195;SDS011;3639;51.308;5.624;2022-09-13T06:28:25;5.20;;;3.80;;
7195;SDS011;3639;51.308;5.624;2022-09-13T06:30:50;6.57;;;3.53;;
7195;SDS011;3639;51.308;5.624;2022-09-13T06:33:16;5.03;;;3.30;;
7195;SDS011;3639;51.308;5.624;2022-09-13T06:35:42;6.77;;;4.00;;
7195;SDS011;3639;51.308;5.624;2022-09-13T06:38:07;5.90;;;4.00;;
7195;SDS011;3639;51.308;5.624;2022-09-13T06:40:33;5.17;;;3.80;;
7195;SDS011;3639;51.308;5.624;2022-09-13T06:42:58;5.73;;;3.93;;
7195;SDS011;3639;51.308;5.624;2022-09-13T06:45:24;6.60;;;4.00;;
7195;SDS011;3639;51.308;5.624;2022-09-13T06:47:52;6.53;;;4.23;;
7195;SDS011;3639;51.308;5.624;2022-09-13T06:50:19;5.17;;;2.93;;
7195;SDS011;3639;51.308;5.624;2022-09-13T06:52:45;5.67;;;3.80;;
7195;SDS011;3639;51.308;5.624;2022-09-13T06:55:10;4.70;;;3.50;;
7195;SDS011;3639;51.308;5.624;2022-09-13T06:57:36;5.27;;;3.63;;
7195;SDS011;3639;51.308;5.624;2022-09-13T07:00:02;6.13;;;4.10;;
7195;SDS011;3639;51.308;5.624;2022-09-13T07:02:28;5.03;;;3.07;;
7195;SDS011;3639;51.308;5.624;2022-09-13T07:04:53;6.70;;;3.57;;
7195;SDS011;3639;51.308;5.624;2022-09-13T07:07:19;5.50;;;3.43;;
7195;SDS011;3639;51.308;5.624;2022-09-13T07:09:45;6.07;;;3.80;;
7195;SDS011;3639;51.308;5.624;2022-09-13T07:12:10;4.87;;;3.53;;
7195;SDS011;3639;51.308;5.624;2022-09-13T07:14:36;5.17;;;3.57;;
7195;SDS011;3639;51.308;5.624;2022-09-13T07:17:01;5.37;;;3.73;;
7195;SDS011;3639;51.308;5.624;2022-09-13T07:19:27;5.60;;;3.20;;
7195;SDS011;3639;51.308;5.624;2022-09-13T07:21:53;4.60;;;3.50;;
7195;SDS011;3639;51.308;5.624;2022-09-13T07:24:20;7.57;;;3.40;;
7195;SDS011;3639;51.308;5.624;2022-09-13T07:26:47;5.03;;;3.70;;
7195;SDS011;3639;51.308;5.624;2022-09-13T07:29:14;3.70;;;2.77;;
7195;SDS011;3639;51.308;5.624;2022-09-13T07:31:43;6.57;;;3.97;;
7195;SDS011;3639;51.308;5.624;2022-09-13T07:34:12;5.33;;;3.17;;
7195;SDS011;3639;51.308;5.624;2022-09-13T07:36:39;5.33;;;3.60;;
7195;SDS011;3639;51.308;5.624;2022-09-13T07:39:05;5.97;;;3.57;;
7195;SDS011;3639;51.308;5.624;2022-09-13T07:41:32;6.87;;;3.60;;
7195;SDS011;3639;51.308;5.624;2022-09-13T07:43:59;6.67;;;3.53;;
7195;SDS011;3639;51.308;5.624;2022-09-13T07:46:29;5.40;;;3.47;;
7195;SDS011;3639;51.308;5.624;2022-09-13T07:49:00;7.17;;;3.63;;
7195;SDS011;3639;51.308;5.624;2022-09-13T07:51:30;5.67;;;4.17;;
7195;SDS011;3639;51.308;5.624;2022-09-13T07:53:58;7.37;;;4.17;;
7195;SDS011;3639;51.308;5.624;2022-09-13T07:56:32;7.83;;;4.07;;
7195;SDS011;3639;51.308;5.624;2022-09-13T07:59:02;6.53;;;3.43;;
7195;SDS011;3639;51.308;5.624;2022-09-13T08:01:36;6.23;;;3.87;;
7195;SDS011;3639;51.308;5.624;2022-09-13T08:04:05;5.67;;;3.80;;
7195;SDS011;3639;51.308;5.624;2022-09-13T08:06:36;6.00;;;3.87;;
7195;SDS011;3639;51.308;5.624;2022-09-13T08:09:03;6.23;;;3.67;;
7195;SDS011;3639;51.308;5.624;2022-09-13T08:11:31;5.83;;;4.27;;
7195;SDS011;3639;51.308;5.624;2022-09-13T08:13:59;7.13;;;4.27;;
7195;SDS011;3639;51.308;5.624;2022-09-13T08:16:26;6.50;;;4.30;;
7195;SDS011;3639;51.308;5.624;2022-09-13T08:18:54;8.43;;;4.80;;
7195;SDS011;3639;51.308;5.624;2022-09-13T08:21:21;9.17;;;4.90;;
7195;SDS011;3639;51.308;5.624;2022-09-13T08:23:48;6.67;;;5.10;;
7195;SDS011;3639;51.308;5.624;2022-09-13T08:26:14;7.20;;;4.40;;
7195;SDS011;3639;51.308;5.624;2022-09-13T08:28:41;6.60;;;4.83;;
7195;SDS011;3639;51.308;5.624;2022-09-13T08:31:14;8.27;;;5.20;;
7195;SDS011;3639;51.308;5.624;2022-09-13T08:33:42;8.93;;;5.33;;
7195;SDS011;3639;51.308;5.624;2022-09-13T08:36:09;7.10;;;5.00;;
7195;SDS011;3639;51.308;5.624;2022-09-13T08:38:35;8.17;;;4.90;;
7195;SDS011;3639;51.308;5.624;2022-09-13T08:41:01;7.57;;;4.77;;
7195;SDS011;3639;51.308;5.624;2022-09-13T08:44:02;9.43;;;5.73;;
7195;SDS011;3639;51.308;5.624;2022-09-13T08:46:50;8.57;;;5.17;;
7195;SDS011;3639;51.308;5.624;2022-09-13T08:49:29;8.17;;;5.30;;
7195;SDS011;3639;51.308;5.624;2022-09-13T08:52:02;7.93;;;5.47;;
7195;SDS011;3639;51.308;5.624;2022-09-13T08:54:41;9.93;;;5.40;;
7195;SDS011;3639;51.308;5.624;2022-09-13T08:57:09;9.07;;;5.60;;
7195;SDS011;3639;51.308;5.624;2022-09-13T09:00:03;9.07;;;5.40;;
7195;SDS011;3639;51.308;5.624;2022-09-13T09:05:27;12.60;;;6.07;;
7195;SDS011;3639;51.308;5.624;2022-09-13T09:07:59;7.37;;;5.63;;
7195;SDS011;3639;51.308;5.624;2022-09-13T09:12:58;9.40;;;5.47;;
7195;SDS011;3639;51.308;5.624;2022-09-13T09:15:32;9.43;;;5.83;;
7195;SDS011;3639;51.308;5.624;2022-09-13T09:20:46;10.07;;;6.00;;
7195;SDS011;3639;51.308;5.624;2022-09-13T09:23:26;8.37;;;5.17;;
7195;SDS011;3639;51.308;5.624;2022-09-13T09:28:38;8.03;;;5.17;;
7195;SDS011;3639;51.308;5.624;2022-09-13T09:31:14;10.13;;;4.90;;
7195;SDS011;3639;51.308;5.624;2022-09-13T09:34:02;7.60;;;4.80;;
7195;SDS011;3639;51.308;5.624;2022-09-13T09:39:28;7.70;;;5.65;;
7195;SDS011;3639;51.308;5.624;2022-09-13T09:41:57;7.40;;;5.03;;
7195;SDS011;3639;51.308;5.624;2022-09-13T09:44:27;7.80;;;3.97;;
7195;SDS011;3639;51.308;5.624;2022-09-13T09:49:47;5.63;;;4.43;;
7195;SDS011;3639;51.308;5.624;2022-09-13T09:57:59;6.72;;;4.57;;
7195;SDS011;3639;51.308;5.624;2022-09-13T10:00:29;7.03;;;5.15;;
7195;SDS011;3639;51.308;5.624;2022-09-13T10:03:03;6.68;;;4.68;;
7195;SDS011;3639;51.308;5.624;2022-09-13T10:05:29;11.02;;;5.43;;
7195;SDS011;3639;51.308;5.624;2022-09-13T10:08:00;5.65;;;4.05;;
7195;SDS011;3639;51.308;5.624;2022-09-13T10:13:00;8.05;;;5.13;;
7195;SDS011;3639;51.308;5.624;2022-09-13T10:15:29;8.07;;;4.57;;
7195;SDS011;3639;51.308;5.624;2022-09-13T10:18:03;11.63;;;5.05;;
7195;SDS011;3639;51.308;5.624;2022-09-13T10:20:31;6.25;;;4.32;;
7195;SDS011;3639;51.308;5.624;2022-09-13T10:25:57;5.55;;;3.90;;
7195;SDS011;3639;51.308;5.624;2022-09-13T10:28:28;7.30;;;4.30;;
7195;SDS011;3639;51.308;5.624;2022-09-13T10:30:57;5.97;;;4.00;;
7195;SDS011;3639;51.308;5.624;2022-09-13T10:33:29;6.85;;;4.70;;
7195;SDS011;3639;51.308;5.624;2022-09-13T10:35:59;6.40;;;3.63;;
7195;SDS011;3639;51.308;5.624;2022-09-13T10:38:29;5.13;;;3.40;;
7195;SDS011;3639;51.308;5.624;2022-09-13T10:40:57;5.00;;;3.22;;
7195;SDS011;3639;51.308;5.624;2022-09-13T10:43:26;4.45;;;2.95;;
7195;SDS011;3639;51.308;5.624;2022-09-13T10:45:54;3.65;;;3.05;;
7195;SDS011;3639;51.308;5.624;2022-09-13T10:48:21;6.00;;;3.13;;
7195;SDS011;3639;51.308;5.624;2022-09-13T10:56:07;3.20;;;2.28;;
7195;SDS011;3639;51.308;5.624;2022-09-13T10:58:46;2.38;;;2.00;;
7195;SDS011;3639;51.308;5.624;2022-09-13T11:04:17;3.03;;;1.85;;
7195;SDS011;3639;51.308;5.624;2022-09-13T11:15:11;8.38;;;3.35;;
7195;SDS011;3639;51.308;5.624;2022-09-13T11:26:23;4.80;;;3.08;;
7195;SDS011;3639;51.308;5.624;2022-09-13T11:31:34;5.60;;;3.67;;
7195;SDS011;3639;51.308;5.624;2022-09-13T11:34:16;5.60;;;3.83;;
7195;SDS011;3639;51.308;5.624;2022-09-13T11:39:37;2.88;;;2.00;;
7195;SDS011;3639;51.308;5.624;2022-09-13T11:50:34;4.57;;;3.10;;
7195;SDS011;3639;51.308;5.624;2022-09-13T11:53:28;3.38;;;2.25;;
7195;SDS011;3639;51.308;5.624;2022-09-13T11:56:02;5.88;;;3.42;;
7195;SDS011;3639;51.308;5.624;2022-09-13T11:58:35;8.20;;;4.07;;
7195;SDS011;3639;51.308;5.624;2022-09-13T12:01:06;5.20;;;3.55;;
7195;SDS011;3639;51.308;5.624;2022-09-13T12:06:18;8.70;;;3.78;;
7195;SDS011;3639;51.308;5.624;2022-09-13T12:08:49;6.68;;;2.75;;
7195;SDS011;3639;51.308;5.624;2022-09-13T12:14:04;4.63;;;2.95;;
7195;SDS011;3639;51.308;5.624;2022-09-13T12:19:10;5.72;;;3.75;;
7195;SDS011;3639;51.308;5.624;2022-09-13T12:21:50;5.82;;;2.90;;
7195;SDS011;3639;51.308;5.624;2022-09-13T12:24:41;4.15;;;3.53;;
7195;SDS011;3639;51.308;5.624;2022-09-13T12:30:16;5.28;;;3.60;;
7195;SDS011;3639;51.308;5.624;2022-09-13T12:32:47;4.85;;;3.55;;
7195;SDS011;3639;51.308;5.624;2022-09-13T12:41:14;7.95;;;4.63;;
7195;SDS011;3639;51.308;5.624;2022-09-13T12:49:28;6.63;;;3.88;;
7195;SDS011;3639;51.308;5.624;2022-09-13T12:52:20;4.55;;;2.92;;
7195;SDS011;3639;51.308;5.624;2022-09-13T12:55:28;7.75;;;3.72;;
7195;SDS011;3639;51.308;5.624;2022-09-13T13:01:02;6.22;;;3.95;;
7195;SDS011;3639;51.308;5.624;2022-09-13T13:03:33;4.80;;;2.88;;
7195;SDS011;3639;51.308;5.624;2022-09-13T13:06:25;5.45;;;3.13;;
7195;SDS011;3639;51.308;5.624;2022-09-13T13:08:59;4.85;;;3.53;;
7195;SDS011;3639;51.308;5.624;2022-09-13T13:11:39;4.57;;;4.03;;
7195;SDS011;3639;51.308;5.624;2022-09-13T13:14:24;6.95;;;3.72;;
7195;SDS011;3639;51.308;5.624;2022-09-13T13:25:59;4.95;;;3.42;;
7195;SDS011;3639;51.308;5.624;2022-09-13T13:31:08;4.50;;;3.55;;
7195;SDS011;3639;51.308;5.624;2022-09-13T13:33:51;5.97;;;3.70;;
7195;SDS011;3639;51.308;5.624;2022-09-13T13:36:23;5.85;;;3.95;;
7195;SDS011;3639;51.308;5.624;2022-09-13T13:38:58;4.97;;;3.40;;
7195;SDS011;3639;51.308;5.624;2022-09-13T13:46:40;7.03;;;4.10;;
7195;SDS011;3639;51.308;5.624;2022-09-13T13:57:59;5.55;;;3.67;;
7195;SDS011;3639;51.308;5.624;2022-09-13T14:00:29;4.35;;;3.60;;
7195;SDS011;3639;51.308;5.624;2022-09-13T14:03:14;5.97;;;3.58;;
7195;SDS011;3639;51.308;5.624;2022-09-13T14:05:56;6.82;;;3.95;;
7195;SDS011;3639;51.308;5.624;2022-09-13T14:11:56;8.90;;;3.40;;
7195;SDS011;3639;51.308;5.624;2022-09-13T14:15:09;5.90;;;3.67;;
7195;SDS011;3639;51.308;5.624;2022-09-13T14:20:30;5.15;;;3.65;;
7195;SDS011;3639;51.308;5.624;2022-09-13T14:25:44;5.65;;;4.00;;
7195;SDS011;3639;51.308;5.624;2022-09-13T14:28:14;5.00;;;3.17;;
7195;SDS011;3639;51.308;5.624;2022-09-13T14:30:44;7.15;;;4.30;;
7195;SDS011;3639;51.308;5.624;2022-09-13T14:33:33;5.47;;;3.40;;
7195;SDS011;3639;51.308;5.624;2022-09-13T14:36:20;6.38;;;5.10;;
7195;SDS011;3639;51.308;5.624;2022-09-13T14:38:47;8.30;;;5.03;;
7195;SDS011;3639;51.308;5.624;2022-09-13T14:41:16;4.97;;;4.18;;
7195;SDS011;3639;51.308;5.624;2022-09-13T14:43:44;5.18;;;4.55;;
7195;SDS011;3639;51.308;5.624;2022-09-13T14:46:36;5.97;;;4.28;;
7195;SDS011;3639;51.308;5.624;2022-09-13T14:49:04;7.43;;;4.50;;
7195;SDS011;3639;51.308;5.624;2022-09-13T14:56:57;5.25;;;4.25;;
7195;SDS011;3639;51.308;5.624;2022-09-13T14:59:32;5.93;;;3.92;;
7195;SDS011;3639;51.308;5.624;2022-09-13T15:02:41;4.95;;;3.75;;
7195;SDS011;3639;51.308;5.624;2022-09-13T15:05:05;4.60;;;3.38;;
7195;SDS011;3639;51.308;5.624;2022-09-13T15:07:37;5.18;;;3.58;;
7195;SDS011;3639;51.308;5.624;2022-09-13T15:10:23;5.22;;;3.38;;
7195;SDS011;3639;51.308;5.624;2022-09-13T15:15:30;5.25;;;3.60;;
7195;SDS011;3639;51.308;5.624;2022-09-13T15:20:42;10.45;;;5.13;;
7195;SDS011;3639;51.308;5.624;2022-09-13T15:23:17;6.88;;;3.58;;
7195;SDS011;3639;51.308;5.624;2022-09-13T15:25:49;5.80;;;4.22;;
7195;SDS011;3639;51.308;5.624;2022-09-13T15:28:46;5.78;;;4.03;;
7195;SDS011;3639;51.308;5.624;2022-09-13T15:31:22;6.75;;;4.15;;
7195;SDS011;3639;51.308;5.624;2022-09-13T15:36:42;7.10;;;3.70;;
7195;SDS011;3639;51.308;5.624;2022-09-13T15:44:01;5.53;;;3.72;;
7195;SDS011;3639;51.308;5.624;2022-09-13T15:46:29;6.95;;;4.28;;
7195;SDS011;3639;51.308;5.624;2022-09-13T15:48:57;6.13;;;4.60;;
7195;SDS011;3639;51.308;5.624;2022-09-13T15:51:25;8.55;;;5.78;;
7195;SDS011;3639;51.308;5.624;2022-09-13T15:53:51;6.20;;;4.22;;
7195;SDS011;3639;51.308;5.624;2022-09-13T15:56:19;8.15;;;4.20;;
7195;SDS011;3639;51.308;5.624;2022-09-13T15:58:47;6.25;;;4.28;;
7195;SDS011;3639;51.308;5.624;2022-09-13T16:01:13;5.22;;;3.70;;
7195;SDS011;3639;51.308;5.624;2022-09-13T16:03:40;6.53;;;3.85;;
7195;SDS011;3639;51.308;5.624;2022-09-13T16:06:06;5.18;;;3.42;;
7195;SDS011;3639;51.308;5.624;2022-09-13T16:08:33;5.53;;;3.88;;
7195;SDS011;3639;51.308;5.624;2022-09-13T16:11:00;5.10;;;3.55;;
7195;SDS011;3639;51.308;5.624;2022-09-13T16:13:25;7.78;;;4.22;;
7195;SDS011;3639;51.308;5.624;2022-09-13T16:15:51;7.50;;;4.50;;
7195;SDS011;3639;51.308;5.624;2022-09-13T16:18:17;5.68;;;4.95;;
7195;SDS011;3639;51.308;5.624;2022-09-13T16:20:43;7.10;;;4.63;;
7195;SDS011;3639;51.308;5.624;2022-09-13T16:23:09;7.18;;;4.00;;
7195;SDS011;3639;51.308;5.624;2022-09-13T16:25:36;6.18;;;4.18;;
7195;SDS011;3639;51.308;5.624;2022-09-13T16:28:03;7.65;;;4.13;;
7195;SDS011;3639;51.308;5.624;2022-09-13T16:30:29;5.70;;;4.32;;
7195;SDS011;3639;51.308;5.624;2022-09-13T16:32:56;6.60;;;4.30;;
7195;SDS011;3639;51.308;5.624;2022-09-13T16:35:21;4.35;;;3.60;;
7195;SDS011;3639;51.308;5.624;2022-09-13T16:37:50;4.68;;;4.18;;
7195;SDS011;3639;51.308;5.624;2022-09-13T16:40:17;5.78;;;4.53;;
7195;SDS011;3639;51.308;5.624;2022-09-13T16:42:43;4.95;;;3.67;;
7195;SDS011;3639;51.308;5.624;2022-09-13T16:45:09;6.20;;;4.97;;
7195;SDS011;3639;51.308;5.624;2022-09-13T16:47:36;6.55;;;4.55;;
7195;SDS011;3639;51.308;5.624;2022-09-13T16:50:03;6.97;;;4.73;;
7195;SDS011;3639;51.308;5.624;2022-09-13T16:52:30;7.80;;;4.43;;
7195;SDS011;3639;51.308;5.624;2022-09-13T16:54:56;8.03;;;5.37;;
7195;SDS011;3639;51.308;5.624;2022-09-13T16:57:22;11.17;;;5.80;;
7195;SDS011;3639;51.308;5.624;2022-09-13T16:59:48;8.63;;;5.40;;
7195;SDS011;3639;51.308;5.624;2022-09-13T17:02:16;6.17;;;4.90;;
7195;SDS011;3639;51.308;5.624;2022-09-13T17:04:42;7.13;;;5.00;;
7195;SDS011;3639;51.308;5.624;2022-09-13T17:07:08;7.93;;;5.23;;
7195;SDS011;3639;51.308;5.624;2022-09-13T17:09:34;6.53;;;4.97;;
7195;SDS011;3639;51.308;5.624;2022-09-13T17:12:00;8.23;;;5.10;;
7195;SDS011;3639;51.308;5.624;2022-09-13T17:14:26;9.43;;;5.37;;
7195;SDS011;3639;51.308;5.624;2022-09-13T17:16:53;7.27;;;4.73;;
7195;SDS011;3639;51.308;5.624;2022-09-13T17:19:21;7.03;;;4.93;;
7195;SDS011;3639;51.308;5.624;2022-09-13T17:21:49;9.77;;;5.00;;
7195;SDS011;3639;51.308;5.624;2022-09-13T17:24:16;8.63;;;5.67;;
7195;SDS011;3639;51.308;5.624;2022-09-13T17:26:42;7.30;;;5.37;;
7195;SDS011;3639;51.308;5.624;2022-09-13T17:29:12;5.87;;;4.50;;
7195;SDS011;3639;51.308;5.624;2022-09-13T17:31:38;8.97;;;5.33;;
7195;SDS011;3639;51.308;5.624;2022-09-13T17:34:05;7.83;;;5.43;;
7195;SDS011;3639;51.308;5.624;2022-09-13T17:36:30;7.90;;;5.83;;
7195;SDS011;3639;51.308;5.624;2022-09-13T17:38:56;5.37;;;4.57;;
7195;SDS011;3639;51.308;5.624;2022-09-13T17:41:24;7.40;;;4.73;;
7195;SDS011;3639;51.308;5.624;2022-09-13T17:43:50;6.40;;;4.93;;
7195;SDS011;3639;51.308;5.624;2022-09-13T17:46:18;6.27;;;5.20;;
7195;SDS011;3639;51.308;5.624;2022-09-13T17:48:47;5.97;;;4.57;;
7195;SDS011;3639;51.308;5.624;2022-09-13T17:51:17;6.63;;;4.90;;
7195;SDS011;3639;51.308;5.624;2022-09-13T17:53:48;8.70;;;4.93;;
7195;SDS011;3639;51.308;5.624;2022-09-13T17:56:19;5.87;;;4.87;;
7195;SDS011;3639;51.308;5.624;2022-09-13T17:58:48;9.93;;;4.80;;
7195;SDS011;3639;51.308;5.624;2022-09-13T18:01:13;6.90;;;5.23;;
7195;SDS011;3639;51.308;5.624;2022-09-13T18:03:40;6.83;;;4.60;;
7195;SDS011;3639;51.308;5.624;2022-09-13T18:06:06;5.97;;;4.73;;
7195;SDS011;3639;51.308;5.624;2022-09-13T18:08:33;7.57;;;4.80;;
7195;SDS011;3639;51.308;5.624;2022-09-13T18:11:05;7.67;;;4.93;;
7195;SDS011;3639;51.308;5.624;2022-09-13T18:13:36;6.37;;;4.40;;
7195;SDS011;3639;51.308;5.624;2022-09-13T18:16:12;5.70;;;4.53;;
7195;SDS011;3639;51.308;5.624;2022-09-13T18:18:41;6.10;;;3.90;;
7195;SDS011;3639;51.308;5.624;2022-09-13T18:21:12;4.20;;;3.67;;
7195;SDS011;3639;51.308;5.624;2022-09-13T18:23:45;7.97;;;4.57;;
7195;SDS011;3639;51.308;5.624;2022-09-13T18:26:13;6.33;;;4.20;;
7195;SDS011;3639;51.308;5.624;2022-09-13T18:28:40;4.40;;;3.23;;
7195;SDS011;3639;51.308;5.624;2022-09-13T18:31:13;7.10;;;3.57;;
7195;SDS011;3639;51.308;5.624;2022-09-13T18:33:40;5.77;;;4.77;;
7195;SDS011;3639;51.308;5.624;2022-09-13T18:36:14;4.60;;;4.03;;
7195;SDS011;3639;51.308;5.624;2022-09-13T18:38:41;4.80;;;3.23;;
7195;SDS011;3639;51.308;5.624;2022-09-13T18:41:13;4.20;;;3.80;;
7195;SDS011;3639;51.308;5.624;2022-09-13T18:43:40;4.53;;;3.77;;
7195;SDS011;3639;51.308;5.624;2022-09-13T18:46:08;4.03;;;3.57;;
7195;SDS011;3639;51.308;5.624;2022-09-13T18:48:37;6.93;;;4.37;;
7195;SDS011;3639;51.308;5.624;2022-09-13T18:51:05;7.37;;;4.63;;
7195;SDS011;3639;51.308;5.624;2022-09-13T18:53:34;4.70;;;4.23;;
7195;SDS011;3639;51.308;5.624;2022-09-13T18:56:00;6.47;;;5.20;;
7195;SDS011;3639;51.308;5.624;2022-09-13T18:58:29;4.90;;;4.33;;